createdAt,value
2023-12-18T00:02:12.885Z,15.82
2023-12-18T00:04:39.214Z,21.33
2023-12-18T00:07:05.682Z,8.88
2023-12-18T00:09:32.054Z,9.07
2023-12-18T00:11:58.425Z,9.25
2023-12-18T00:14:24.760Z,12.05
2023-12-18T00:16:51.223Z,11.03
2023-12-18T00:19:17.702Z,9.73
2023-12-18T00:21:44.134Z,10.25
2023-12-18T00:24:10.486Z,12.98
2023-12-18T00:26:36.841Z,10.90
2023-12-18T00:29:03.330Z,10.40
2023-12-18T00:31:29.860Z,14.90
2023-12-18T00:33:56.458Z,12.68
2023-12-18T00:36:22.891Z,12.98
2023-12-18T00:38:49.247Z,17.67
2023-12-18T00:41:15.583Z,22.40
2023-12-18T00:43:41.949Z,12.63
2023-12-18T00:46:08.308Z,18.73
2023-12-18T00:48:34.789Z,12.98
2023-12-18T00:51:01.145Z,16.35
2023-12-18T00:53:27.649Z,13.70
2023-12-18T00:55:54.011Z,15.82
2023-12-18T00:58:20.337Z,20.65
2023-12-18T01:00:46.764Z,22.88
2023-12-18T01:03:13.279Z,19.83
2023-12-18T01:05:39.681Z,15.63
2023-12-18T01:08:06.279Z,21.15
2023-12-18T01:10:32.594Z,18.00
2023-12-18T01:12:58.925Z,13.85
2023-12-18T01:15:25.634Z,13.32
2023-12-18T01:17:52.061Z,8.70
2023-12-18T01:20:18.586Z,14.82
2023-12-18T01:22:46.923Z,19.23
2023-12-18T01:25:16.031Z,9.32
2023-12-18T01:27:43.063Z,16.33
2023-12-18T01:30:10.364Z,12.63
2023-12-18T01:32:36.730Z,46.88
2023-12-18T01:35:03.376Z,15.65
2023-12-18T01:37:29.777Z,20.55
2023-12-18T01:39:56.108Z,66.03
2023-12-18T01:42:22.522Z,33.93
2023-12-18T01:44:49.600Z,30.00
2023-12-18T01:47:17.344Z,46.17
2023-12-18T01:49:44.344Z,23.02
2023-12-18T01:52:11.017Z,10.05
2023-12-18T01:54:37.579Z,14.03
2023-12-18T01:57:05.671Z,8.43
2023-12-18T01:59:33.411Z,13.40
2023-12-18T02:02:00.025Z,15.30
2023-12-18T02:04:27.391Z,11.10
2023-12-18T02:06:53.987Z,11.40
2023-12-18T02:09:20.331Z,14.13
2023-12-18T02:11:46.927Z,8.93
2023-12-18T02:14:13.525Z,11.38
2023-12-18T02:16:39.949Z,9.88
2023-12-18T02:19:06.635Z,7.80
2023-12-18T02:21:33.022Z,10.13
2023-12-18T02:23:59.378Z,11.13
2023-12-18T02:26:26.016Z,8.00
2023-12-18T02:28:52.366Z,10.80
2023-12-18T02:31:19.644Z,10.07
2023-12-18T02:33:50.003Z,14.05
2023-12-18T02:36:17.613Z,21.50
2023-12-18T02:38:43.994Z,27.55
2023-12-18T02:41:10.545Z,14.73
2023-12-18T02:43:36.874Z,18.87
2023-12-18T02:46:03.774Z,22.90
2023-12-18T02:48:30.285Z,22.92
2023-12-18T02:50:56.726Z,9.70
2023-12-18T02:53:23.063Z,18.58
2023-12-18T02:55:49.544Z,13.43
2023-12-18T02:58:15.892Z,13.02
2023-12-18T03:00:42.262Z,14.27
2023-12-18T03:03:08.749Z,15.95
2023-12-18T03:05:35.219Z,20.25
2023-12-18T03:08:01.563Z,13.03
2023-12-18T03:10:27.925Z,9.40
2023-12-18T03:12:54.319Z,12.32
2023-12-18T03:15:20.676Z,17.83
2023-12-18T03:17:47.439Z,8.15
2023-12-18T03:20:14.080Z,12.77
2023-12-18T03:22:40.448Z,14.65
2023-12-18T03:25:07.174Z,15.05
2023-12-18T03:27:33.599Z,11.35
2023-12-18T03:30:00.000Z,17.75
2023-12-18T03:32:26.677Z,17.73
2023-12-18T03:34:53.023Z,27.48
2023-12-18T03:37:19.511Z,23.58
2023-12-18T03:39:45.855Z,19.33
2023-12-18T03:42:12.998Z,17.25
2023-12-18T03:44:39.401Z,19.93
2023-12-18T03:47:05.822Z,32.35
2023-12-18T03:49:32.209Z,21.25
2023-12-18T03:51:58.580Z,33.53
2023-12-18T03:54:25.014Z,13.07
2023-12-18T03:56:51.344Z,18.30
2023-12-18T03:59:17.675Z,26.95
2023-12-18T04:01:44.099Z,17.48
2023-12-18T04:04:11.794Z,14.13
2023-12-18T04:06:38.259Z,20.70
2023-12-18T04:09:05.002Z,22.73
2023-12-18T04:11:31.447Z,7.63
2023-12-18T04:13:57.768Z,16.02
2023-12-18T04:16:24.109Z,30.52
2023-12-18T04:18:51.437Z,11.75
2023-12-18T04:21:17.956Z,19.73
2023-12-18T04:23:44.331Z,12.55
2023-12-18T04:26:10.655Z,10.38
2023-12-18T04:28:37.015Z,9.20
2023-12-18T04:31:03.528Z,14.38
2023-12-18T04:33:29.980Z,9.33
2023-12-18T04:35:56.357Z,14.38
2023-12-18T04:38:22.703Z,14.85
2023-12-18T04:40:49.168Z,14.00
2023-12-18T04:43:15.520Z,11.80
2023-12-18T04:45:41.968Z,11.17
2023-12-18T04:48:08.483Z,12.70
2023-12-18T04:50:34.945Z,20.25
2023-12-18T04:53:01.324Z,16.77
2023-12-18T04:55:27.668Z,17.02
2023-12-18T04:57:53.994Z,12.90
2023-12-18T05:00:20.417Z,11.60
2023-12-18T05:02:48.023Z,8.60
2023-12-18T05:05:14.398Z,9.00
2023-12-18T05:07:40.778Z,18.10
2023-12-18T05:10:07.644Z,13.33
2023-12-18T05:12:34.036Z,16.45
2023-12-18T05:15:03.486Z,9.88
2023-12-18T05:17:30.916Z,16.42
2023-12-18T05:19:57.293Z,11.18
2023-12-18T05:22:24.013Z,9.73
2023-12-18T05:24:50.400Z,17.20
2023-12-18T05:27:18.715Z,10.45
2023-12-18T05:29:45.099Z,8.90
2023-12-18T05:32:11.420Z,7.72
2023-12-18T05:34:37.901Z,10.77
2023-12-18T05:37:07.290Z,15.57
2023-12-18T05:39:33.685Z,39.70
2023-12-18T05:42:00.124Z,35.88
2023-12-18T05:44:26.473Z,13.30
2023-12-18T05:46:52.856Z,24.67
2023-12-18T05:49:19.235Z,19.30
2023-12-18T05:51:45.632Z,22.77
2023-12-18T05:54:12.045Z,26.60
2023-12-18T05:56:38.428Z,10.70
2023-12-18T05:59:04.820Z,30.27
2023-12-18T06:01:31.241Z,12.52
2023-12-18T06:03:57.851Z,19.23
2023-12-18T06:06:24.372Z,25.45
2023-12-18T06:08:50.746Z,11.00
2023-12-18T06:11:17.150Z,29.30
2023-12-18T06:13:43.753Z,10.10
2023-12-18T06:16:10.079Z,18.55
2023-12-18T06:18:36.563Z,39.95
2023-12-18T06:21:04.803Z,22.65
2023-12-18T06:23:32.098Z,36.43
2023-12-18T06:26:00.062Z,53.47
2023-12-18T06:28:28.472Z,93.63
2023-12-18T06:30:55.578Z,53.40
2023-12-18T06:33:22.078Z,28.80
2023-12-18T06:35:48.712Z,38.43
2023-12-18T06:38:15.091Z,26.45
2023-12-18T06:40:41.440Z,18.17
2023-12-18T06:43:07.813Z,39.75
2023-12-18T06:45:34.186Z,26.50
2023-12-18T06:48:00.658Z,26.23
2023-12-18T06:50:27.109Z,21.00
2023-12-18T06:52:54.152Z,11.48
2023-12-18T06:55:20.595Z,26.27
2023-12-18T06:57:46.939Z,14.10
2023-12-18T07:00:14.012Z,23.07
2023-12-18T07:02:40.591Z,27.90
2023-12-18T07:05:07.460Z,33.85
2023-12-18T07:07:33.934Z,22.23
2023-12-18T07:10:00.387Z,28.10
2023-12-18T07:12:26.855Z,29.20
2023-12-18T07:14:53.250Z,70.45
2023-12-18T07:17:19.596Z,17.42
2023-12-18T07:19:45.932Z,45.50
2023-12-18T07:22:12.290Z,30.20
2023-12-18T07:24:38.648Z,26.90
2023-12-18T07:27:05.307Z,24.17
2023-12-18T07:29:31.863Z,44.92
2023-12-18T07:31:58.238Z,29.85
2023-12-18T07:34:24.748Z,15.32
2023-12-18T07:36:51.274Z,17.23
2023-12-18T07:39:17.751Z,19.55
2023-12-18T07:41:44.161Z,16.77
2023-12-18T07:44:10.644Z,77.90
2023-12-18T07:46:36.990Z,23.85
2023-12-18T07:49:03.982Z,20.93
2023-12-18T07:51:30.586Z,26.52
2023-12-18T07:53:56.966Z,26.75
2023-12-18T07:56:23.341Z,45.50
2023-12-18T07:58:49.681Z,47.25
2023-12-18T08:01:20.786Z,34.00
2023-12-18T08:03:47.791Z,34.80
2023-12-18T08:06:14.222Z,15.40
2023-12-18T08:08:40.753Z,14.00
2023-12-18T08:11:07.131Z,13.50
2023-12-18T08:13:39.101Z,14.60
2023-12-18T08:16:07.237Z,13.27
2023-12-18T08:18:33.761Z,15.98
2023-12-18T08:21:00.410Z,12.93
2023-12-18T08:23:27.642Z,9.02
2023-12-18T08:25:54.201Z,11.00
2023-12-18T08:28:20.560Z,9.32
2023-12-18T08:30:47.030Z,9.40
2023-12-18T08:33:13.599Z,25.95
2023-12-18T08:35:40.106Z,29.25
2023-12-18T08:38:06.461Z,13.53
2023-12-18T08:40:33.080Z,34.55
2023-12-18T08:42:59.549Z,29.20
2023-12-18T08:45:26.048Z,23.23
2023-12-18T08:47:52.513Z,62.78
2023-12-18T08:50:18.938Z,34.03
2023-12-18T08:52:45.269Z,52.83
2023-12-18T08:55:11.929Z,32.97
2023-12-18T08:57:38.297Z,52.05
2023-12-18T09:00:07.409Z,11.68
2023-12-18T09:02:33.888Z,18.93
2023-12-18T09:05:00.482Z,20.30
2023-12-18T09:07:26.868Z,9.80
2023-12-18T09:09:53.242Z,15.57
2023-12-18T09:12:19.799Z,26.13
2023-12-18T09:14:46.140Z,32.30
2023-12-18T09:17:12.482Z,24.63
2023-12-18T09:19:38.936Z,35.00
2023-12-18T09:22:06.295Z,28.15
2023-12-18T09:24:32.962Z,47.10
2023-12-18T09:26:59.365Z,27.03
2023-12-18T09:29:25.719Z,23.88
2023-12-18T09:31:52.188Z,9.93
2023-12-18T09:34:18.738Z,14.90
2023-12-18T09:36:45.584Z,10.48
2023-12-18T09:39:12.001Z,8.83
2023-12-18T09:41:38.357Z,11.55
2023-12-18T09:44:04.880Z,17.30
2023-12-18T09:46:31.313Z,24.95
2023-12-18T09:48:58.511Z,13.70
2023-12-18T09:51:26.704Z,11.73
2023-12-18T09:53:54.149Z,15.65
2023-12-18T09:56:21.629Z,23.83
2023-12-18T09:58:48.395Z,19.25
2023-12-18T10:01:15.332Z,16.67
2023-12-18T10:03:42.790Z,25.10
2023-12-18T10:06:10.057Z,31.20
2023-12-18T10:08:36.569Z,19.58
2023-12-18T10:11:04.332Z,18.52
2023-12-18T10:13:30.686Z,76.93
2023-12-18T10:15:58.064Z,68.00
2023-12-18T10:18:25.471Z,10.48
2023-12-18T10:20:52.612Z,41.05
2023-12-18T10:23:18.960Z,26.70
2023-12-18T10:25:45.399Z,19.15
2023-12-18T10:28:13.760Z,25.87
2023-12-18T10:30:40.371Z,28.75
2023-12-18T10:33:11.058Z,99.70
2023-12-18T10:35:37.961Z,36.30
2023-12-18T10:38:06.147Z,72.03
2023-12-18T10:40:32.549Z,31.00
2023-12-18T10:43:28.379Z,8.48
2023-12-18T10:45:57.904Z,15.75
2023-12-18T10:48:26.130Z,19.38
2023-12-18T10:50:56.128Z,57.58
2023-12-18T10:53:24.422Z,70.07
2023-12-18T10:55:51.758Z,48.63
2023-12-18T10:58:19.106Z,38.15
2023-12-18T11:00:45.924Z,17.17
2023-12-18T11:03:14.284Z,12.88
2023-12-18T11:05:42.670Z,28.67
2023-12-18T11:08:11.205Z,22.45
2023-12-18T11:10:38.086Z,43.90
2023-12-18T11:13:10.417Z,9.70
2023-12-18T11:16:02.089Z,20.77
2023-12-18T11:19:19.680Z,27.50
2023-12-18T11:21:53.983Z,12.38
2023-12-18T11:24:20.517Z,43.33
2023-12-18T11:26:47.777Z,8.77
2023-12-18T11:29:38.949Z,34.40
2023-12-18T11:32:05.753Z,25.63
2023-12-18T11:34:32.321Z,24.70
2023-12-18T11:36:59.998Z,31.48
2023-12-18T11:39:42.786Z,63.65
2023-12-18T11:42:11.581Z,22.23
2023-12-18T11:44:38.138Z,18.83
2023-12-18T11:47:04.734Z,21.10
2023-12-18T11:49:31.487Z,40.30
2023-12-18T11:51:59.785Z,14.45
2023-12-18T11:54:26.901Z,15.80
2023-12-18T11:56:56.293Z,32.73
2023-12-18T11:59:24.391Z,20.13
2023-12-18T12:01:52.324Z,32.65
2023-12-18T12:04:20.869Z,36.78
2023-12-18T12:06:48.226Z,20.20
2023-12-18T12:09:14.571Z,21.93
2023-12-18T12:11:40.950Z,81.50
2023-12-18T12:14:07.369Z,112.05
2023-12-18T12:16:34.183Z,34.15
2023-12-18T12:19:01.513Z,49.25
2023-12-18T12:21:35.009Z,36.40
2023-12-18T12:24:08.703Z,36.80
2023-12-18T12:26:35.269Z,77.13
2023-12-18T12:29:01.636Z,44.13
2023-12-18T12:31:29.096Z,63.92
2023-12-18T12:33:56.652Z,46.80
2023-12-18T12:36:23.913Z,96.13
2023-12-18T12:38:50.380Z,26.55
2023-12-18T12:41:17.015Z,38.60
2023-12-18T12:43:44.587Z,88.35
2023-12-18T12:46:15.500Z,151.73
2023-12-18T12:48:46.434Z,102.63
2023-12-18T12:51:14.320Z,40.47
2023-12-18T12:53:42.797Z,36.30
2023-12-18T12:56:10.406Z,104.20
2023-12-18T12:58:37.167Z,34.80
2023-12-18T13:01:03.856Z,60.10
2023-12-18T13:03:30.996Z,40.80
2023-12-18T13:05:57.970Z,41.70
2023-12-18T13:08:24.317Z,35.25
2023-12-18T13:10:50.762Z,31.63
2023-12-18T13:13:18.399Z,38.08
2023-12-18T13:15:45.085Z,56.80
2023-12-18T13:18:12.222Z,66.13
2023-12-18T13:20:38.798Z,54.35
2023-12-18T13:23:05.206Z,22.50
2023-12-18T13:25:31.554Z,103.93
2023-12-18T13:27:57.993Z,82.95
2023-12-18T13:30:24.531Z,85.80
2023-12-18T13:32:51.078Z,104.78
2023-12-18T13:35:17.582Z,51.60
2023-12-18T13:37:44.306Z,43.67
2023-12-18T13:40:11.525Z,40.72
2023-12-18T13:42:38.015Z,76.95
2023-12-18T13:45:04.828Z,101.45
2023-12-18T13:47:31.793Z,36.67
2023-12-18T13:49:58.286Z,65.53
2023-12-18T13:52:26.223Z,57.15
2023-12-18T13:54:52.901Z,69.35
2023-12-18T13:57:19.708Z,87.60
2023-12-18T13:59:46.132Z,62.20
2023-12-18T14:02:12.470Z,84.55
2023-12-18T14:04:38.829Z,124.38
2023-12-18T14:07:05.393Z,86.25
2023-12-18T14:09:31.837Z,95.45
2023-12-18T14:11:58.388Z,38.63
2023-12-18T14:14:24.798Z,74.93
2023-12-18T14:16:51.152Z,51.65
2023-12-18T14:19:17.581Z,31.63
2023-12-18T14:21:44.118Z,62.30
2023-12-18T14:24:10.628Z,77.67
2023-12-18T14:26:37.106Z,77.55
2023-12-18T14:29:03.486Z,66.32
2023-12-18T14:31:29.979Z,85.93
2023-12-18T14:33:56.571Z,39.03
2023-12-18T14:36:22.978Z,21.73
2023-12-18T14:38:52.868Z,29.48
2023-12-18T14:41:20.662Z,43.60
2023-12-18T14:43:47.236Z,44.85
2023-12-18T14:46:15.227Z,87.70
2023-12-18T14:48:42.954Z,35.80
2023-12-18T14:51:09.335Z,36.20
2023-12-18T14:53:35.671Z,61.33
2023-12-18T14:56:02.333Z,65.07
2023-12-18T14:58:28.678Z,46.50
2023-12-18T15:00:55.393Z,52.43
2023-12-18T15:03:21.917Z,74.60
2023-12-18T15:05:51.301Z,36.13
2023-12-18T15:08:18.096Z,47.38
2023-12-18T15:10:45.160Z,40.17
2023-12-18T15:13:13.311Z,35.77
2023-12-18T15:15:40.061Z,52.03
2023-12-18T15:18:07.089Z,39.05
2023-12-18T15:20:33.662Z,37.10
2023-12-18T15:23:00.005Z,29.83
2023-12-18T15:25:26.381Z,20.43
2023-12-18T15:27:52.785Z,19.25
2023-12-18T15:30:19.369Z,23.90
2023-12-18T15:32:47.804Z,20.33
2023-12-18T15:35:14.338Z,19.83
2023-12-18T15:37:40.776Z,17.17
2023-12-18T15:40:08.189Z,17.02
2023-12-18T15:42:34.650Z,20.20
2023-12-18T15:45:01.188Z,13.25
2023-12-18T15:47:28.379Z,20.25
2023-12-18T15:49:55.193Z,26.90
2023-12-18T15:52:22.908Z,17.67
2023-12-18T15:54:49.285Z,19.17
2023-12-18T15:57:15.702Z,24.30
2023-12-18T15:59:42.369Z,19.48
2023-12-18T16:02:08.693Z,47.70
2023-12-18T16:04:35.028Z,60.53
2023-12-18T16:07:01.537Z,48.33
2023-12-18T16:09:27.925Z,38.70
2023-12-18T16:11:54.276Z,30.55
2023-12-18T16:14:21.033Z,49.10
2023-12-18T16:16:47.943Z,17.90
2023-12-18T16:19:16.215Z,20.35
2023-12-18T16:21:42.754Z,34.92
2023-12-18T16:24:09.784Z,36.47
2023-12-18T16:26:37.022Z,33.33
2023-12-18T16:29:08.309Z,50.17
2023-12-18T16:31:35.094Z,23.45
2023-12-18T16:34:01.769Z,37.53
2023-12-18T16:36:28.711Z,29.08
2023-12-18T16:38:55.357Z,34.10
2023-12-18T16:41:22.900Z,21.92
2023-12-18T16:43:49.850Z,23.90
2023-12-18T16:46:16.202Z,27.33
2023-12-18T16:48:43.026Z,17.00
2023-12-18T16:51:09.423Z,22.87
2023-12-18T16:53:35.764Z,23.83
2023-12-18T16:56:02.132Z,17.90
2023-12-18T16:58:29.010Z,28.50
2023-12-18T17:00:55.477Z,35.03
2023-12-18T17:03:22.813Z,22.37
2023-12-18T17:05:52.287Z,29.08
2023-12-18T17:08:18.779Z,34.83
2023-12-18T17:10:45.829Z,33.25
2023-12-18T17:13:13.708Z,33.63
2023-12-18T17:15:43.827Z,29.60
2023-12-18T17:18:11.229Z,36.47
2023-12-18T17:20:38.384Z,39.03
2023-12-18T17:23:05.490Z,40.53
2023-12-18T17:25:31.865Z,44.40
2023-12-18T17:27:58.610Z,40.00
2023-12-18T17:30:26.132Z,36.85
2023-12-18T17:32:52.572Z,33.92
2023-12-18T17:35:18.971Z,40.55
2023-12-18T17:37:45.363Z,43.00
2023-12-18T17:40:12.120Z,43.47
2023-12-18T17:42:38.509Z,43.78
2023-12-18T17:45:05.865Z,40.38
2023-12-18T17:47:32.785Z,38.85
2023-12-18T17:49:59.931Z,39.22
2023-12-18T17:52:29.216Z,36.33
2023-12-18T17:54:55.713Z,36.50
2023-12-18T17:57:22.149Z,30.13
2023-12-18T17:59:48.722Z,25.45
2023-12-18T18:02:16.059Z,23.85
2023-12-18T18:04:45.330Z,21.57
2023-12-18T18:07:13.001Z,21.85
2023-12-18T18:09:39.601Z,23.42
2023-12-18T18:12:06.776Z,26.35
2023-12-18T18:14:33.256Z,28.48
2023-12-18T18:16:59.645Z,36.03
2023-12-18T18:19:26.050Z,33.58
2023-12-18T18:21:52.527Z,35.65
2023-12-18T18:24:18.992Z,40.00
2023-12-18T18:26:45.413Z,34.95
2023-12-18T18:29:17.113Z,31.00
2023-12-18T18:31:44.788Z,27.63
2023-12-18T18:34:11.479Z,28.00
2023-12-18T18:36:38.000Z,32.78
2023-12-18T18:39:06.073Z,37.90
2023-12-18T18:41:33.717Z,40.77
2023-12-18T18:44:00.168Z,42.08
2023-12-18T18:46:27.198Z,30.13
2023-12-18T18:48:53.650Z,25.60
2023-12-18T18:51:20.110Z,23.98
2023-12-18T18:53:46.469Z,25.30
2023-12-18T18:56:12.859Z,27.92
2023-12-18T18:58:39.219Z,29.92
2023-12-18T19:01:05.752Z,23.38
2023-12-18T19:03:32.293Z,21.95
2023-12-18T19:05:58.749Z,22.33
2023-12-18T19:08:26.450Z,25.17
2023-12-18T19:10:52.811Z,22.30
2023-12-18T19:13:19.969Z,23.13
2023-12-18T19:15:47.949Z,22.17
2023-12-18T19:18:14.695Z,25.67
2023-12-18T19:20:41.235Z,22.38
2023-12-18T19:23:07.578Z,23.23
2023-12-18T19:25:33.937Z,28.10
2023-12-18T19:28:00.358Z,25.30
2023-12-18T19:30:26.804Z,23.97
2023-12-18T19:32:53.304Z,21.77
2023-12-18T19:35:19.662Z,23.55
2023-12-18T19:37:46.027Z,24.77
2023-12-18T19:40:14.131Z,25.15
2023-12-18T19:42:40.718Z,28.00
2023-12-18T19:45:07.873Z,31.85
2023-12-18T19:47:34.247Z,30.25
2023-12-18T19:50:01.550Z,27.15
2023-12-18T19:52:28.040Z,22.25
2023-12-18T19:54:54.452Z,22.53
2023-12-18T19:57:20.862Z,33.20
2023-12-18T19:59:47.790Z,34.65
2023-12-18T20:02:14.132Z,45.53
2023-12-18T20:04:40.513Z,38.47
2023-12-18T20:07:06.954Z,34.93
2023-12-18T20:09:33.375Z,39.22
2023-12-18T20:11:59.791Z,39.17
2023-12-18T20:14:26.512Z,45.28
2023-12-18T20:16:52.906Z,44.83
2023-12-18T20:19:19.427Z,41.27
2023-12-18T20:21:45.890Z,34.47
2023-12-18T20:24:12.287Z,20.88
2023-12-18T20:26:38.663Z,22.10
2023-12-18T20:29:05.020Z,21.50
2023-12-18T20:31:31.426Z,17.17
2023-12-18T20:33:57.873Z,17.75
2023-12-18T20:36:24.356Z,21.23
2023-12-18T20:38:50.700Z,30.58
2023-12-18T20:41:17.695Z,29.73
2023-12-18T20:43:44.077Z,25.07
2023-12-18T20:46:10.441Z,27.73
2023-12-18T20:48:36.786Z,20.83
2023-12-18T20:51:03.292Z,19.85
2023-12-18T20:53:29.638Z,25.50
2023-12-18T20:55:55.970Z,21.40
2023-12-18T20:58:22.825Z,21.48
2023-12-18T21:00:49.254Z,21.48
2023-12-18T21:03:15.713Z,23.58
2023-12-18T21:05:42.467Z,21.15
2023-12-18T21:08:08.961Z,22.60
2023-12-18T21:10:35.476Z,27.27
2023-12-18T21:13:03.688Z,25.83
2023-12-18T21:15:30.178Z,26.58
2023-12-18T21:17:58.870Z,25.33
2023-12-18T21:20:25.352Z,24.20
2023-12-18T21:22:51.974Z,23.55
2023-12-18T21:25:18.822Z,33.22
2023-12-18T21:27:45.428Z,36.80
2023-12-18T21:30:13.482Z,27.48
2023-12-18T21:32:40.071Z,35.10
2023-12-18T21:35:07.295Z,29.13
2023-12-18T21:37:33.830Z,29.50
2023-12-18T21:40:00.291Z,30.73
2023-12-18T21:42:26.749Z,24.20
2023-12-18T21:44:53.182Z,24.83
2023-12-18T21:47:21.453Z,26.83
2023-12-18T21:49:47.831Z,24.00
2023-12-18T21:52:15.660Z,23.77
2023-12-18T21:54:42.072Z,25.10
2023-12-18T21:57:11.140Z,24.63
2023-12-18T21:59:37.484Z,24.10
2023-12-18T22:02:04.001Z,22.98
2023-12-18T22:04:31.855Z,22.27
2023-12-18T22:06:58.454Z,20.77
2023-12-18T22:09:25.104Z,19.53
2023-12-18T22:11:51.556Z,22.02
2023-12-18T22:14:17.926Z,23.08
2023-12-18T22:16:44.292Z,21.27
2023-12-18T22:19:11.449Z,20.77
2023-12-18T22:21:38.063Z,21.90
2023-12-18T22:24:04.822Z,20.90
2023-12-18T22:26:31.188Z,21.23
2023-12-18T22:28:57.561Z,21.10
2023-12-18T22:31:24.783Z,20.02
2023-12-18T22:33:51.498Z,21.57
2023-12-18T22:36:17.944Z,22.30
2023-12-18T22:38:45.912Z,19.77
2023-12-18T22:41:14.176Z,24.02
2023-12-18T22:43:40.534Z,23.70
2023-12-18T22:46:06.900Z,22.47
2023-12-18T22:48:33.364Z,23.27
2023-12-18T22:50:59.786Z,21.85
2023-12-18T22:53:26.736Z,21.65
2023-12-18T22:55:53.138Z,25.48
2023-12-18T22:58:19.557Z,23.37
2023-12-18T23:00:45.958Z,19.75
2023-12-18T23:03:12.973Z,21.65
2023-12-18T23:05:39.401Z,22.88
2023-12-18T23:08:05.902Z,19.98
2023-12-18T23:10:32.298Z,19.20
2023-12-18T23:12:59.852Z,19.25
2023-12-18T23:15:26.351Z,18.70
2023-12-18T23:17:53.006Z,19.85
2023-12-18T23:20:19.416Z,17.77
2023-12-18T23:22:46.741Z,20.13
2023-12-18T23:25:14.242Z,23.98
2023-12-18T23:27:40.618Z,20.65
2023-12-18T23:30:07.719Z,23.65
2023-12-18T23:32:34.224Z,20.92
2023-12-18T23:35:00.761Z,22.43
2023-12-18T23:37:27.144Z,22.13
2023-12-18T23:39:53.631Z,22.00
2023-12-18T23:42:20.236Z,22.17
2023-12-18T23:44:46.586Z,24.02
2023-12-18T23:47:13.136Z,19.80
2023-12-18T23:49:39.582Z,17.58
2023-12-18T23:52:06.193Z,16.73
2023-12-18T23:54:32.784Z,15.30
2023-12-18T23:56:59.639Z,18.48
2023-12-18T23:59:25.974Z,14.30
